Map

Track Data

SID SEASON NUMBER BASIN SUBBASIN NAME ISO_TIME NATURE LAT LON WMO_WIND WMO_PRES WMO_AGENCY TRACK_TYPE DIST2LAND LANDFALL IFLAG USA_AGENCY USA_ATCF_ID USA_LAT USA_LON USA_RECORD USA_STATUS USA_WIND USA_PRES USA_SSHS USA_R34_NE USA_R34_SE USA_R34_SW USA_R34_NW USA_R50_NE USA_R50_SE USA_R50_SW USA_R50_NW USA_R64_NE USA_R64_SE USA_R64_SW USA_R64_NW USA_POCI USA_ROCI USA_RMW USA_EYE TOKYO_LAT TOKYO_LON TOKYO_GRADE TOKYO_WIND TOKYO_PRES TOKYO_R50_DIR TOKYO_R50_LONG TOKYO_R50_SHORT TOKYO_R30_DIR TOKYO_R30_LONG TOKYO_R30_SHORT TOKYO_LAND CMA_LAT CMA_LON CMA_CAT CMA_WIND CMA_PRES HKO_LAT HKO_LON HKO_CAT HKO_WIND HKO_PRES NEWDELHI_LAT NEWDELHI_LON NEWDELHI_GRADE NEWDELHI_WIND NEWDELHI_PRES NEWDELHI_CI NEWDELHI_DP NEWDELHI_POCI REUNION_LAT REUNION_LON REUNION_TYPE REUNION_WIND REUNION_PRES REUNION_TNUM REUNION_CI REUNION_RMW REUNION_R34_NE REUNION_R34_SE REUNION_R34_SW REUNION_R34_NW REUNION_R50_NE REUNION_R50_SE REUNION_R50_SW REUNION_R50_NW REUNION_R64_NE REUNION_R64_SE REUNION_R64_SW REUNION_R64_NW BOM_LAT BOM_LON BOM_TYPE BOM_WIND BOM_PRES BOM_TNUM BOM_CI BOM_RMW BOM_R34_NE BOM_R34_SE BOM_R34_SW BOM_R34_NW BOM_R50_NE BOM_R50_SE BOM_R50_SW BOM_R50_NW BOM_R64_NE BOM_R64_SE BOM_R64_SW BOM_R64_NW BOM_ROCI BOM_POCI BOM_EYE BOM_POS_METHOD BOM_PRES_METHOD NADI_LAT NADI_LON NADI_CAT NADI_WIND NADI_PRES WELLINGTON_LAT WELLINGTON_LON WELLINGTON_WIND WELLINGTON_PRES DS824_LAT DS824_LON DS824_STAGE DS824_WIND DS824_PRES TD9636_LAT TD9636_LON TD9636_STAGE TD9636_WIND TD9636_PRES TD9635_LAT TD9635_LON TD9635_WIND TD9635_PRES TD9635_ROCI NEUMANN_LAT NEUMANN_LON NEUMANN_CLASS NEUMANN_WIND NEUMANN_PRES MLC_LAT MLC_LON MLC_CLASS MLC_WIND MLC_PRES USA_GUST BOM_GUST BOM_GUST_PER REUNION_GUST REUNION_GUST_PER USA_SEAHGT USA_SEARAD_NE USA_SEARAD_SE USA_SEARAD_SW USA_SEARAD_NW STORM_SPEED STORM_DIR
1881070S21413 1881 9 SI MM NOT_NAMED 1881-03-10 18:00:00 NR -21.3000 53.3000 spur-merge 198 198 __________O___ -1 -21.3000 53.3000 7 4 217
1881070S21413 1881 9 SI MM NOT_NAMED 1881-03-10 21:00:00 NR -21.4579 53.1706 spur-merge 211 211 __________P___ -1 -21.4579 53.1706 7 4 217
1881070S21413 1881 9 SI MM NOT_NAMED 1881-03-11 00:00:00 NR -21.6126 53.0428 spur-merge 234 234 __________P___ -1 -21.6126 53.0428 7 4 218
1881070S21413 1881 9 SI MM NOT_NAMED 1881-03-11 03:00:00 NR -21.7610 52.9186 spur-merge 250 250 __________P___ -1 -21.7610 52.9186 7 4 218
1881070S21413 1881 9 SI MM NOT_NAMED 1881-03-11 06:00:00 NR -21.9000 52.8000 spur-merge 263 263 __________O___ -1 -21.9000 52.8000 7 3 219
1881070S21413 1881 9 SI MM NOT_NAMED 1881-03-11 09:00:00 NR -22.0281 52.6886 spur-merge 277 277 __________P___ -1 -22.0281 52.6886 7 3 218
1881070S21413 1881 9 SI MM NOT_NAMED 1881-03-11 12:00:00 NR -22.1500 52.5849 spur-merge 291 291 __________P___ -1 -22.1500 52.5849 7 3 217
1881070S21413 1881 9 SI MM NOT_NAMED 1881-03-11 15:00:00 NR -22.2719 52.4887 spur-merge 309 309 __________P___ -1 -22.2719 52.4887 7 3 215
1881070S21413 1881 9 SI MM NOT_NAMED 1881-03-11 18:00:00 NR -22.4000 52.4000 spur-merge 323 323 __________O___ -1 -22.4000 52.4000 7 3 210
1881070S21413 1881 9 SI MM NOT_NAMED 1881-03-11 21:00:00 NR -22.5306 52.3257 spur-merge 337 337 __________P___ -1 -22.5306 52.3257 7 3 206
1881070S21413 1881 9 SI MM NOT_NAMED 1881-03-12 00:00:00 NR -22.6699 52.2572 spur-merge 346 346 __________P___ -1 -22.6699 52.2572 7 3 204
1881070S21413 1881 9 SI MM NOT_NAMED 1881-03-12 03:00:00 NR -22.8243 52.1851 spur-merge 360 360 __________P___ -1 -22.8243 52.1851 7 4 204
1881070S21413 1881 9 SI MM NOT_NAMED 1881-03-12 06:00:00 NR -23.0000 52.1000 spur-merge 380 380 __________O___ -1 -23.0000 52.1000 7 4 207
1881070S21413 1881 9 SI MM NOT_NAMED 1881-03-12 09:00:00 NR -23.2035 51.9774 spur-merge 400 400 __________P___ -1 -23.2035 51.9774 7 5 209
1881070S21413 1881 9 SI MM NOT_NAMED 1881-03-12 12:00:00 NR -23.4276 51.8428 spur-merge 410 405 __________P___ -1 -23.4276 51.8428 7 5 208
1881070S21413 1881 9 SI MM NOT_NAMED 1881-03-12 15:00:00 NR -23.6629 51.7118 spur-merge 408 399 __________P___ -1 -23.6629 51.7118 7 5 206
1881070S21413 1881 9 SI MM NOT_NAMED 1881-03-12 18:00:00 NR -23.9000 51.6000 spur-merge 400 392 __________O___ -1 -23.9000 51.6000 7 5 201
1881070S21413 1881 9 SI MM NOT_NAMED 1881-03-12 21:00:00 NR -24.1315 51.5192 spur-merge 394 394 __________P___ -1 -24.1315 51.5192 7 5 196
1881070S21413 1881 9 SI MM NOT_NAMED 1881-03-13 00:00:00 NR -24.3574 51.4648 spur-merge 401 392 __________P___ -1 -24.3574 51.4648 7 5 190
1881070S21413 1881 9 SI MM NOT_NAMED 1881-03-13 03:00:00 NR -24.5796 51.4280 spur-merge 398 398 __________P___ -1 -24.5796 51.4280 7 4 187
1881070S21413 1881 9 SI MM NOT_NAMED 1881-03-13 06:00:00 NR -24.8000 51.4000 spur-merge 404 __________O___ -1 -24.8000 51.4000 7 4 0

About IBTrACS Database

This database is a web-friendly format of International Best Track Archive for Climate Stewardship (IBTrACS), a global best track data archive curated by NOAA dating back to 1842.

Updated: 2021-11-26